Time;durP1;ratioP1;P1;durP2;ratioP2;P2;SDS_P1;SDS_P2;PMS_P1;PMS_P2;Temp;Humidity;BMP_temperature;BMP_pressure;BME280_temperature;BME280_humidity;BME280_pressure;Samples;Min_cycle;Max_cycle;Signal;HPM_P1;HPM_P2
2022/12/20 00:02:25;;;;;;;37.15;18.60;;;;;;;3.24;100.00;100273.31;12169988;19;20018;-77
2022/12/20 00:06:28;;;;;;;42.53;19.95;;;;;;;3.28;100.00;100277.38;12169240;19;20027;-77
2022/12/20 00:10:29;;;;;;;48.22;19.33;;;;;;;3.30;100.00;100266.28;12151153;19;20007;-76
2022/12/20 00:14:31;;;;;;;43.65;20.35;;;;;;;3.30;100.00;100256.25;12168021;19;20025;-78
2022/12/20 00:18:33;;;;;;;44.78;19.70;;;;;;;3.35;100.00;100250.22;12170712;19;20035;-75
2022/12/20 00:22:35;;;;;;;44.63;19.83;;;;;;;3.40;100.00;100240.44;12155254;19;20844;-75
2022/12/20 00:26:36;;;;;;;48.85;21.38;;;;;;;3.45;100.00;100230.81;12206803;19;20011;-79
2022/12/20 00:30:40;;;;;;;46.67;21.00;;;;;;;3.48;100.00;100228.56;12172943;19;20035;-76
2022/12/20 00:34:41;;;;;;;41.40;20.48;;;;;;;3.54;100.00;100237.81;12150814;19;20006;-76
2022/12/20 00:38:44;;;;;;;46.08;22.20;;;;;;;3.48;100.00;100230.44;12170692;19;20014;-76
2022/12/20 00:42:46;;;;;;;48.85;21.77;;;;;;;3.44;100.00;100235.44;12169675;19;21147;-78
2022/12/20 00:46:48;;;;;;;42.60;19.38;;;;;;;3.41;100.00;100230.38;12149791;19;20023;-78
2022/12/20 00:50:50;;;;;;;44.22;21.23;;;;;;;3.40;100.00;100242.31;12172332;19;20006;-76
2022/12/20 00:54:51;;;;;;;50.92;19.90;;;;;;;3.37;100.00;100235.38;12167859;19;20013;-76
2022/12/20 00:58:53;;;;;;;48.13;22.08;;;;;;;3.32;100.00;100236.97;12152292;19;20011;-76
2022/12/20 01:02:57;;;;;;;41.45;20.35;;;;;;;3.33;100.00;100233.19;12172247;19;20027;-76
2022/12/20 01:07:04;;;;;;;44.13;20.75;;;;;;;3.29;100.00;100231.91;12164991;19;20011;-79
2022/12/20 01:11:28;;;;;;;46.25;20.15;;;;;;;3.26;100.00;100243.19;12149548;19;20006;-76
2022/12/20 01:15:31;;;;;;;45.47;19.67;;;;;;;3.19;100.00;100249.41;12182118;19;20010;-77
2022/12/20 01:19:32;;;;;;;41.55;19.17;;;;;;;3.15;100.00;100234.50;12177226;19;20022;-76
2022/12/20 01:23:34;;;;;;;42.33;19.75;;;;;;;3.11;100.00;100227.72;12176376;19;20031;-76
2022/12/20 01:27:36;;;;;;;46.00;21.23;;;;;;;3.13;100.00;100225.66;12171420;19;20021;-76
2022/12/20 01:31:37;;;;;;;39.70;19.77;;;;;;;3.22;100.00;100236.44;12152743;19;20007;-78
2022/12/20 01:35:41;;;;;;;39.08;18.98;;;;;;;3.27;100.00;100234.84;12178446;19;20014;-77
2022/12/20 01:39:42;;;;;;;49.35;21.52;;;;;;;3.34;100.00;100218.56;12175947;19;20003;-77
2022/12/20 01:43:52;;;;;;;44.70;21.52;;;;;;;3.40;100.00;100206.91;12153308;19;21412;-78
2022/12/20 01:47:55;;;;;;;43.47;20.55;;;;;;;3.42;100.00;100204.78;12185463;19;20010;-75
2022/12/20 01:52:03;;;;;;;44.97;20.00;;;;;;;3.40;100.00;100202.28;12186057;19;20097;-78
2022/12/20 01:56:07;;;;;;;38.30;19.05;;;;;;;3.37;100.00;100212.72;12163484;19;20006;-79
2022/12/20 02:00:09;;;;;;;41.47;19.67;;;;;;;3.35;100.00;100204.75;12187798;19;20363;-77
2022/12/20 02:04:14;;;;;;;41.15;20.92;;;;;;;3.33;100.00;100208.69;12167831;19;20043;-78
2022/12/20 02:08:19;;;;;;;42.72;20.52;;;;;;;3.35;100.00;100201.19;12183880;19;20010;-78
2022/12/20 02:12:24;;;;;;;40.90;19.00;;;;;;;3.36;100.00;100202.84;12181648;19;20015;-78
2022/12/20 02:16:28;;;;;;;42.65;21.20;;;;;;;3.37;100.00;100196.38;12160909;19;20010;-77
2022/12/20 02:20:54;;;;;;;38.28;19.33;;;;;;;3.36;100.00;100190.09;12191126;19;20451;-78
2022/12/20 02:25:33;;;;;;;43.67;19.77;;;;;;;3.34;100.00;100170.38;12185986;19;20028;-77
2022/12/20 02:30:13;;;;;;;46.70;21.08;;;;;;;3.39;100.00;100150.69;12159130;19;20324;-78
2022/12/20 02:34:16;;;;;;;43.17;20.52;;;;;;;3.40;100.00;100146.97;12154451;19;20086;-78
2022/12/20 02:38:32;;;;;;;43.47;21.00;;;;;;;3.41;100.00;100137.75;12185825;19;20630;-76
2022/12/20 02:42:34;;;;;;;38.70;18.95;;;;;;;3.42;100.00;100137.56;12182077;19;20023;-76
2022/12/20 02:46:37;;;;;;;50.25;21.60;;;;;;;3.40;100.00;100130.63;12160451;19;20007;-79
2022/12/20 02:50:43;;;;;;;39.90;20.25;;;;;;;3.32;100.00;100131.59;12186003;19;20006;-78
2022/12/20 02:54:46;;;;;;;42.22;19.50;;;;;;;3.22;100.00;100138.41;12189643;19;20007;-77
2022/12/20 02:58:54;;;;;;;40.65;19.70;;;;;;;3.15;100.00;100122.84;12165339;19;20015;-78
2022/12/20 03:07:19;;;;;;;39.55;18.40;;;;;;;3.12;100.00;100139.56;12203241;19;20014;-76
2022/12/20 03:11:20;;;;;;;47.53;20.75;;;;;;;3.07;100.00;100142.03;12249413;19;20006;-76
2022/12/20 03:15:22;;;;;;;45.88;20.77;;;;;;;3.02;100.00;100138.19;12232011;19;20289;-77
2022/12/20 03:19:27;;;;;;;37.28;18.00;;;;;;;2.99;100.00;100136.69;12195629;19;20055;-79
2022/12/20 03:23:31;;;;;;;40.33;19.00;;;;;;;3.03;100.00;100118.91;12206471;19;20010;-77
2022/12/20 03:27:32;;;;;;;44.42;19.75;;;;;;;3.07;100.00;100113.97;12206427;19;20842;-78
2022/12/20 03:31:36;;;;;;;41.40;19.88;;;;;;;3.12;100.00;100120.50;12183831;19;20101;-80
2022/12/20 03:35:39;;;;;;;44.78;19.17;;;;;;;3.20;100.00;100119.53;12229865;19;19995;-76
2022/12/20 03:39:41;;;;;;;;;;;;;;;3.20;100.00;100109.47;12230302;19;20015;-78
2022/12/20 03:43:43;;;;;;;37.72;17.75;;;;;;;3.26;100.00;100104.28;12185144;19;19920;-77
2022/12/20 03:47:45;;;;;;;47.05;19.98;;;;;;;3.32;100.00;100096.16;12207236;19;20027;-78
2022/12/20 03:51:47;;;;;;;38.38;19.50;;;;;;;3.41;100.00;100099.59;12194695;19;20024;-78
2022/12/20 03:55:49;;;;;;;41.97;19.17;;;;;;;3.49;100.00;100091.28;12181735;19;20101;-78
2022/12/20 03:59:53;;;;;;;39.28;19.60;;;;;;;3.54;100.00;100094.28;12201430;19;20007;-79
2022/12/20 04:03:55;;;;;;;43.25;19.85;;;;;;;3.58;100.00;100090.13;12192528;19;20014;-77
2022/12/20 04:07:57;;;;;;;38.35;18.77;;;;;;;3.60;100.00;100092.66;12175533;19;20021;-77
2022/12/20 04:11:58;;;;;;;38.63;19.70;;;;;;;3.56;100.00;100122.16;12195767;19;20707;-78
2022/12/20 04:16:01;;;;;;;43.47;21.05;;;;;;;3.44;100.00;100123.72;12194195;19;20047;-80
2022/12/20 04:20:18;;;;;;;46.85;20.38;;;;;;;3.45;100.00;100116.38;12174723;19;21379;-79
2022/12/20 04:24:31;;;;;;;44.15;20.30;;;;;;;3.48;100.00;100110.53;12190909;19;20010;-79
2022/12/20 04:28:51;;;;;;;47.42;21.80;;;;;;;3.44;100.00;100096.47;12176002;19;20006;-78
2022/12/20 04:32:53;;;;;;;45.45;20.00;;;;;;;3.44;100.00;100093.75;12192606;19;20023;-79
2022/12/20 04:36:55;;;;;;;40.53;21.20;;;;;;;3.48;100.00;100095.06;12197605;19;20010;-79
2022/12/20 04:41:08;;;;;;;45.92;21.55;;;;;;;3.43;100.00;100076.56;12174243;19;20599;-79
2022/12/20 04:45:20;;;;;;;37.73;19.20;;;;;;;3.44;100.00;100071.97;12191756;19;20007;-80
2022/12/20 04:49:24;;;;;;;39.53;20.83;;;;;;;3.39;100.00;100074.44;12172394;19;20002;-79
2022/12/20 04:57:45;;;;;;;42.50;20.15;;;;;;;3.24;100.00;100065.50;12198382;19;20013;-79
2022/12/20 05:01:48;;;;;;;40.72;20.70;;;;;;;3.20;100.00;100075.94;12172286;19;20050;-78
2022/12/20 05:06:03;;;;;;;42.40;19.73;;;;;;;3.20;100.00;100081.41;12196040;19;20006;-78
2022/12/20 05:10:05;;;;;;;42.85;19.75;;;;;;;3.22;100.00;100083.94;12195037;19;20010;-79
2022/12/20 05:14:07;;;;;;;35.25;18.23;;;;;;;3.23;100.00;100070.13;12169292;19;20078;-77
2022/12/20 05:18:09;;;;;;;42.05;19.13;;;;;;;3.30;100.00;100059.25;12195600;19;20019;-79
2022/12/20 05:26:44;;;;;;;39.50;19.52;;;;;;;3.51;100.00;100056.53;12194959;19;20043;-78
2022/12/20 05:30:46;;;;;;;43.92;20.20;;;;;;;3.61;100.00;100059.75;12194973;19;20371;-80
2022/12/20 05:34:48;;;;;;;40.00;18.85;;;;;;;3.71;100.00;100059.38;12170237;19;20436;-79
2022/12/20 05:38:51;;;;;;;35.35;18.75;;;;;;;3.76;100.00;100048.72;12191434;19;20456;-80
2022/12/20 05:43:02;;;;;;;39.63;17.80;;;;;;;3.81;100.00;100056.31;12192819;19;20036;-79
2022/12/20 05:47:10;;;;;;;35.40;17.08;;;;;;;3.87;100.00;100055.53;12173339;19;20093;-78
2022/12/20 05:51:13;;;;;;;33.63;17.80;;;;;;;3.94;100.00;100056.38;12198987;19;20017;-81
2022/12/20 05:55:30;;;;;;;35.10;17.30;;;;;;;3.95;100.00;100062.69;12173315;19;20030;-81
2022/12/20 05:59:32;;;;;;;33.78;16.95;;;;;;;3.91;100.00;100054.06;12199116;19;20011;-80
2022/12/20 06:03:34;;;;;;;31.02;16.83;;;;;;;3.94;100.00;100050.94;12200483;19;20007;-82
2022/12/20 06:07:39;;;;;;;39.03;18.83;;;;;;;3.91;100.00;100048.63;12175730;19;20010;-82
2022/12/20 06:11:41;;;;;;;36.40;17.43;;;;;;;3.92;100.00;100041.28;12184652;19;20010;-82
2022/12/20 06:15:46;;;;;;;40.58;19.23;;;;;;;3.90;100.00;100041.50;12180598;19;20010;-82
2022/12/20 06:19:50;;;;;;;39.85;18.80;;;;;;;3.89;100.00;100042.50;12193807;19;20035;-81
2022/12/20 06:23:51;;;;;;;35.03;17.58;;;;;;;3.90;100.00;100030.59;12202030;19;20100;-80
2022/12/20 06:27:55;;;;;;;38.70;19.08;;;;;;;3.93;100.00;100026.63;12213494;19;20032;-79
2022/12/20 06:31:58;;;;;;;35.10;17.20;;;;;;;3.98;100.00;100011.31;12185532;19;20018;-78
2022/12/20 06:36:00;;;;;;;38.08;19.00;;;;;;;4.00;100.00;99994.75;12218076;19;20392;-83
2022/12/20 06:40:04;;;;;;;39.37;19.60;;;;;;;4.05;100.00;99998.56;12263277;19;20017;-78
2022/12/20 06:44:06;;;;;;;37.58;18.83;;;;;;;4.07;100.00;99995.63;12242348;19;20018;-81
2022/12/20 06:48:09;;;;;;;38.60;18.45;;;;;;;4.06;100.00;99989.34;12227697;19;20010;-82
2022/12/20 06:52:11;;;;;;;37.50;17.50;;;;;;;4.06;100.00;99994.78;12207872;19;20078;-82
2022/12/20 06:56:22;;;;;;;34.55;17.05;;;;;;;4.15;100.00;100016.44;12222386;19;20014;-83
2022/12/20 07:00:24;;;;;;;29.90;16.30;;;;;;;4.11;100.00;100030.47;12219536;19;20030;-80
2022/12/20 07:04:27;;;;;;;36.55;16.95;;;;;;;4.00;100.00;100049.28;12193503;19;20011;-83
2022/12/20 07:08:29;;;;;;;39.72;18.67;;;;;;;4.01;100.00;100061.88;12212708;19;20367;-82
2022/12/20 07:12:32;;;;;;;35.85;19.35;;;;;;;3.99;100.00;100067.53;12213469;19;20010;-84
2022/12/20 07:16:34;;;;;;;40.97;19.52;;;;;;;4.06;100.00;100043.88;12196724;19;20085;-82
2022/12/20 07:20:37;;;;;;;37.17;17.83;;;;;;;4.13;100.00;100048.50;12216402;19;20014;-83
2022/12/20 07:24:38;;;;;;;34.00;17.52;;;;;;;4.20;100.00;100046.69;12207139;19;20500;-83
2022/12/20 07:28:41;;;;;;;48.00;20.02;;;;;;;4.25;100.00;100041.44;12202256;19;20010;-78
2022/12/20 07:32:42;;;;;;;36.97;18.58;;;;;;;4.28;100.00;100024.66;12217040;19;20035;-82
2022/12/20 07:36:44;;;;;;;33.38;17.73;;;;;;;4.37;100.00;100015.25;12213849;19;20044;-83
2022/12/20 07:40:46;;;;;;;31.60;17.83;;;;;;;4.46;100.00;100008.59;12187478;19;20303;-85
2022/12/20 07:44:47;;;;;;;36.13;17.27;;;;;;;4.55;100.00;99999.16;12225371;19;20009;-79
2022/12/20 07:48:49;;;;;;;39.55;16.77;;;;;;;4.62;100.00;100014.72;12266174;19;20013;-79
2022/12/20 07:52:51;;;;;;;30.20;16.08;;;;;;;4.68;100.00;100016.63;12197755;19;20017;-79
2022/12/20 07:57:23;;;;;;;34.25;16.13;;;;;;;4.72;100.00;100012.41;12212597;19;20015;-83
2022/12/20 08:01:27;;;;;;;30.65;16.05;;;;;;;4.71;100.00;100013.47;12199173;19;20006;-79
2022/12/20 08:05:29;;;;;;;31.60;16.08;;;;;;;4.72;100.00;100015.16;12211172;19;20018;-83
2022/12/20 08:09:37;;;;;;;29.43;15.13;;;;;;;4.76;100.00;99994.59;12213942;19;20023;-84
2022/12/20 08:13:39;;;;;;;29.58;15.00;;;;;;;4.82;100.00;99982.84;12194111;19;20270;-84
2022/12/20 08:17:47;;;;;;;30.15;16.95;;;;;;;4.82;100.00;99980.13;12213700;19;20404;-82
2022/12/20 08:21:48;;;;;;;37.17;18.55;;;;;;;4.78;100.00;99976.09;12205059;19;20002;-81
2022/12/20 08:25:50;;;;;;;36.33;20.15;;;;;;;4.77;100.00;99977.16;12187886;19;20476;-82
2022/12/20 08:29:52;;;;;;;30.92;17.10;;;;;;;4.92;100.00;99963.31;12213111;19;20014;-82
2022/12/20 08:33:55;;;;;;;27.55;14.73;;;;;;;5.24;100.00;99978.03;12206613;19;20014;-83
2022/12/20 08:37:56;;;;;;;26.73;13.35;;;;;;;5.53;100.00;99973.97;12189601;19;20594;-82
2022/12/20 08:41:58;;;;;;;27.02;12.65;;;;;;;5.84;100.00;99967.81;12208788;19;20035;-84
2022/12/20 08:46:00;;;;;;;28.67;14.70;;;;;;;6.04;100.00;99969.66;12213200;19;20023;-83
2022/12/20 08:50:02;;;;;;;22.73;13.95;;;;;;;6.18;100.00;99952.13;12185972;19;20451;-83
2022/12/20 08:54:04;;;;;;;22.27;11.70;;;;;;;6.33;100.00;99949.94;12198177;19;20006;-83
2022/12/20 08:58:08;;;;;;;23.38;12.07;;;;;;;6.49;100.00;99947.78;12207189;19;20267;-81
2022/12/20 09:02:09;;;;;;;22.70;12.43;;;;;;;6.62;100.00;99944.94;12179354;19;20014;-83
2022/12/20 09:06:19;;;;;;;22.27;12.95;;;;;;;6.75;100.00;99944.00;12207124;19;20014;-83
2022/12/20 09:10:21;;;;;;;26.63;13.30;;;;;;;6.87;100.00;99950.47;12188073;19;20111;-82
2022/12/20 09:14:23;;;;;;;23.83;12.30;;;;;;;7.03;100.00;99955.38;12205081;19;20034;-81
2022/12/20 09:18:24;;;;;;;24.90;13.85;;;;;;;7.18;100.00;99955.06;12205660;19;20086;-81
2022/12/20 09:22:28;;;;;;;24.30;14.18;;;;;;;7.22;100.00;99956.28;12178503;19;20043;-83
2022/12/20 09:26:31;;;;;;;23.55;13.75;;;;;;;7.12;100.00;99949.63;12203559;19;20042;-84
2022/12/20 09:30:32;;;;;;;26.13;14.23;;;;;;;7.15;100.00;99954.66;12201804;19;20019;-82
2022/12/20 09:34:34;;;;;;;24.90;13.40;;;;;;;7.30;100.00;99963.38;12183233;19;20067;-83
2022/12/20 09:38:36;;;;;;;22.63;12.40;;;;;;;7.40;100.00;99980.16;12207589;19;20006;-80
2022/12/20 09:42:38;;;;;;;23.23;12.70;;;;;;;7.46;100.00;99971.00;12209939;19;20421;-82
2022/12/20 09:46:40;;;;;;;24.67;12.27;;;;;;;7.64;100.00;99964.72;12185281;19;20003;-81
2022/12/20 09:51:04;;;;;;;25.17;15.95;;;;;;;7.87;100.00;99947.59;12215223;19;20381;-83
2022/12/20 09:55:27;;;;;;;22.25;11.52;;;;;;;8.20;100.00;99947.19;12212395;19;20010;-83
2022/12/20 09:59:32;;;;;;;23.55;13.18;;;;;;;8.40;100.00;99924.16;12190481;19;20512;-83
2022/12/20 10:03:41;;;;;;;22.63;13.52;;;;;;;8.52;100.00;99924.19;12214955;19;20379;-78
2022/12/20 10:08:12;;;;;;;15.57;7.93;;;;;;;8.62;100.00;99928.03;12189214;19;20030;-82
2022/12/20 10:12:28;;;;;;;20.33;12.13;;;;;;;8.69;100.00;99927.97;12239769;19;20007;-76
2022/12/20 10:16:44;;;;;;;22.25;12.45;;;;;;;8.80;100.00;99924.38;12209581;19;20010;-80
2022/12/20 10:21:04;;;;;;;19.23;10.95;;;;;;;8.94;100.00;99926.94;12223704;19;20500;-84
2022/12/20 10:25:21;;;;;;;21.58;11.93;;;;;;;9.07;100.00;99908.31;12209642;19;20018;-79
2022/12/20 10:29:23;;;;;;;16.67;10.65;;;;;;;9.01;100.00;99912.03;12186813;19;20026;-82
2022/12/20 10:33:26;;;;;;;21.85;10.75;;;;;;;9.08;100.00;99915.47;12198506;19;20030;-78
2022/12/20 10:37:28;;;;;;;20.05;11.50;;;;;;;9.15;100.00;99909.03;12187172;19;20002;-80
2022/12/20 10:41:50;;;;;;;19.08;10.20;;;;;;;9.07;100.00;99901.97;12210812;19;20083;-80
2022/12/20 10:46:05;;;;;;;18.30;10.70;;;;;;;9.04;100.00;99897.81;12209442;19;20028;-82
2022/12/20 10:50:16;;;;;;;25.90;11.57;;;;;;;9.00;100.00;99899.34;12188773;19;21593;-80
2022/12/20 10:54:33;;;;;;;24.35;12.02;;;;;;;8.99;100.00;99894.94;12211264;19;20011;-79
2022/12/20 10:58:36;;;;;;;19.15;10.82;;;;;;;9.06;100.00;99895.63;12189647;19;20374;-81
2022/12/20 11:02:39;;;;;;;23.20;12.27;;;;;;;9.13;100.00;99885.38;12212446;19;20490;-81
2022/12/20 11:06:44;;;;;;;22.85;13.05;;;;;;;9.20;100.00;99881.66;12208691;19;20476;-81
2022/12/20 11:10:46;;;;;;;26.23;12.77;;;;;;;9.24;100.00;99869.09;12188737;19;20018;-78
2022/12/20 11:14:48;;;;;;;19.43;11.93;;;;;;;9.42;100.00;99855.22;12204033;19;20006;-80
2022/12/20 11:18:52;;;;;;;22.17;12.90;;;;;;;9.52;100.00;99849.13;12209554;19;20022;-79
2022/12/20 11:23:06;;;;;;;23.10;13.05;;;;;;;9.52;100.00;99849.97;12185623;19;20027;-81
2022/12/20 11:27:26;;;;;;;21.75;12.85;;;;;;;9.61;100.00;99857.81;12203409;19;20088;-81
2022/12/20 11:31:55;;;;;;;20.73;11.65;;;;;;;9.70;100.00;99850.88;12180381;19;20047;-77
2022/12/20 11:36:05;;;;;;;24.42;12.20;;;;;;;9.81;100.00;99845.34;12210220;19;20015;-82
2022/12/20 11:40:26;;;;;;;21.92;11.35;;;;;;;9.80;100.00;99840.91;12222315;19;20011;-79
2022/12/20 11:44:40;;;;;;;21.85;12.65;;;;;;;9.74;100.00;99819.88;12195701;19;20022;-81
2022/12/20 11:49:14;;;;;;;19.48;11.63;;;;;;;9.71;100.00;99811.25;12223541;19;20071;-75
2022/12/20 11:53:25;;;;;;;22.38;11.57;;;;;;;9.84;100.00;99818.41;12214507;19;20037;-77
2022/12/20 11:57:35;;;;;;;23.98;11.88;;;;;;;9.93;100.00;99828.75;12207761;19;20101;-75
2022/12/20 12:02:10;;;;;;;19.58;12.13;;;;;;;9.98;100.00;99808.78;12179062;19;20011;-77
2022/12/20 12:06:33;;;;;;;21.08;10.85;;;;;;;10.17;100.00;99787.34;12204489;19;20483;-77
2022/12/20 12:10:36;;;;;;;;;;;;;;;10.25;100.00;99781.44;12182362;19;20074;-79
2022/12/20 12:14:44;;;;;;;;;;;;;;;10.26;100.00;99774.84;12199987;19;19915;-80
2022/12/20 12:18:46;;;;;;;16.42;10.68;;;;;;;10.24;99.88;99774.28;12200373;19;19914;-79
2022/12/20 12:22:52;;;;;;;16.50;9.60;;;;;;;10.22;98.86;99766.25;12181029;19;20003;-76
2022/12/20 12:26:57;;;;;;;16.27;10.00;;;;;;;10.30;98.94;99765.06;12213363;19;20003;-78
2022/12/20 12:31:05;;;;;;;15.45;10.02;;;;;;;10.35;99.65;99756.88;12197599;19;20881;-75
2022/12/20 12:35:38;;;;;;;17.02;10.57;;;;;;;10.31;99.33;99755.69;12178202;19;20014;-79
2022/12/20 12:40:02;;;;;;;18.67;10.02;;;;;;;10.23;99.81;99758.81;12198430;19;20361;-78
2022/12/20 12:44:34;;;;;;;15.65;9.60;;;;;;;10.30;99.41;99762.31;12173369;19;20035;-77
2022/12/20 12:48:44;;;;;;;17.60;9.40;;;;;;;10.30;97.87;99762.31;12195369;19;20007;-76
2022/12/20 12:52:53;;;;;;;18.13;10.25;;;;;;;10.23;97.63;99745.06;12174040;19;20006;-78
2022/12/20 12:57:05;;;;;;;20.38;11.13;;;;;;;10.24;98.01;99738.50;12198949;19;20047;-78
2022/12/20 13:01:11;;;;;;;18.13;9.98;;;;;;;10.19;98.46;99736.47;12196479;19;20102;-77
2022/12/20 13:05:12;;;;;;;19.10;10.15;;;;;;;10.17;99.21;99724.03;12176954;19;20006;-78
2022/12/20 13:09:21;;;;;;;19.77;10.65;;;;;;;10.17;98.99;99718.53;12191426;19;20015;-78
2022/12/20 13:13:23;;;;;;;19.27;11.55;;;;;;;10.18;99.11;99714.69;12166470;19;20364;-80
2022/12/20 13:17:43;;;;;;;17.02;10.38;;;;;;;10.21;99.57;99716.97;12188771;19;20476;-77
2022/12/20 13:21:47;;;;;;;17.23;10.10;;;;;;;10.20;99.24;99690.47;12193425;19;20011;-78
2022/12/20 13:25:50;;;;;;;18.80;9.80;;;;;;;10.21;99.56;99694.94;12174916;19;20030;-75
2022/12/20 13:29:57;;;;;;;19.20;9.15;;;;;;;10.16;99.63;99708.59;12189193;19;20038;-76
2022/12/20 13:34:00;;;;;;;13.98;8.73;;;;;;;10.02;97.64;99717.19;12188750;19;20536;-80
2022/12/20 13:38:10;;;;;;;15.68;9.23;;;;;;;10.07;97.52;99708.19;12173094;19;20011;-77
2022/12/20 13:42:26;;;;;;;12.40;8.15;;;;;;;10.16;97.97;99689.31;12192870;19;20654;-79
2022/12/20 13:46:51;;;;;;;12.35;8.02;;;;;;;10.22;96.30;99689.16;12179499;19;20067;-76
2022/12/20 13:50:55;;;;;;;14.88;8.55;;;;;;;10.24;95.68;99699.94;12202499;19;19998;-79
2022/12/20 13:54:59;;;;;;;12.48;7.70;;;;;;;10.23;95.91;99701.00;12197532;19;20003;-76
2022/12/20 13:59:13;;;;;;;16.10;9.02;;;;;;;10.25;96.61;99707.94;12182685;19;20014;-77
2022/12/20 14:03:22;;;;;;;15.55;9.45;;;;;;;10.12;96.96;99722.03;12205939;19;21531;-78
2022/12/20 14:07:25;;;;;;;15.20;9.95;;;;;;;9.93;97.36;99723.34;12179864;19;20026;-79
2022/12/20 14:11:27;;;;;;;14.70;9.35;;;;;;;9.74;97.62;99722.72;12204284;19;21277;-77
2022/12/20 14:15:31;;;;;;;;;;;;;;;9.56;98.39;99718.25;12203246;19;20014;-79
2022/12/20 14:19:33;;;;;;;18.08;8.93;;;;;;;9.42;99.13;99714.13;12184185;19;19908;-77
2022/12/20 14:23:41;;;;;;;17.55;9.15;;;;;;;9.20;100.00;99703.78;12201719;19;20364;-76
2022/12/20 14:27:44;;;;;;;14.93;8.75;;;;;;;9.03;100.00;99687.22;12204456;19;20694;-79
2022/12/20 14:31:50;;;;;;;;;;;;;;;8.91;100.00;99675.41;12177219;19;20015;-77
2022/12/20 14:35:51;;;;;;;16.02;8.35;;;;;;;8.92;100.00;99679.81;12202919;19;19982;-78
2022/12/20 14:39:54;;;;;;;34.15;17.05;;;;;;;9.00;100.00;99671.22;12202180;19;20066;-78
2022/12/20 14:43:59;;;;;;;42.53;19.95;;;;;;;9.09;100.00;99663.41;12179616;19;20013;-76
2022/12/20 14:48:06;;;;;;;21.85;10.65;;;;;;;9.08;100.00;99665.34;12203635;19;20010;-76
2022/12/20 14:52:10;;;;;;;16.30;9.05;;;;;;;9.07;100.00;99669.19;12205131;19;20362;-78
2022/12/20 14:56:18;;;;;;;16.35;8.40;;;;;;;9.06;100.00;99667.50;12180972;19;20006;-78
2022/12/20 15:00:30;;;;;;;11.32;7.00;;;;;;;9.01;100.00;99661.91;12205102;19;20015;-79
2022/12/20 15:04:34;;;;;;;15.27;6.90;;;;;;;8.90;100.00;99660.03;12183225;19;20007;-78
2022/12/20 15:08:36;;;;;;;13.90;7.88;;;;;;;8.72;100.00;99655.53;12200105;19;20010;-78
2022/12/20 15:12:38;;;;;;;13.43;7.65;;;;;;;8.52;100.00;99655.06;12202005;19;20062;-77
2022/12/20 15:16:47;;;;;;;15.93;6.95;;;;;;;8.41;100.00;99662.22;12176938;19;20014;-77
2022/12/20 15:21:03;;;;;;;15.15;7.65;;;;;;;8.26;100.00;99639.88;12201831;19;19998;-76
2022/12/20 15:25:16;;;;;;;14.27;7.75;;;;;;;8.15;100.00;99630.56;12201557;19;20007;-78
2022/12/20 15:29:22;;;;;;;12.48;7.05;;;;;;;8.11;100.00;99648.59;12178894;19;20038;-75
2022/12/20 15:33:29;;;;;;;14.23;6.85;;;;;;;8.17;100.00;99664.09;12191891;19;20432;-76
2022/12/20 15:37:31;;;;;;;15.90;7.53;;;;;;;8.16;100.00;99657.78;12178580;19;20007;-78
2022/12/20 15:41:33;;;;;;;12.77;7.40;;;;;;;8.16;100.00;99640.47;12205093;19;20007;-76
2022/12/20 15:45:34;;;;;;;10.73;6.78;;;;;;;8.21;100.00;99635.94;12203523;19;20435;-77
2022/12/20 15:49:36;;;;;;;14.75;7.40;;;;;;;8.30;100.00;99638.31;12180491;19;20484;-77
2022/12/20 15:53:38;;;;;;;11.85;7.50;;;;;;;8.33;100.00;99626.84;12201183;19;20478;-79
2022/12/20 15:57:39;;;;;;;14.02;7.32;;;;;;;8.35;100.00;99625.53;12199022;19;20036;-77
2022/12/20 16:01:41;;;;;;;14.95;7.88;;;;;;;8.41;100.00;99627.34;12184568;19;20376;-78
2022/12/20 16:05:43;;;;;;;12.90;7.00;;;;;;;8.51;100.00;99618.53;12197632;19;20011;-78
2022/12/20 16:09:44;;;;;;;11.55;6.38;;;;;;;8.61;100.00;99613.25;12202801;19;20010;-79
2022/12/20 16:13:46;;;;;;;13.07;6.85;;;;;;;8.69;100.00;99623.03;12179683;19;20094;-77
2022/12/20 16:17:48;;;;;;;14.35;6.82;;;;;;;8.72;100.00;99621.72;12201769;19;20002;-77
2022/12/20 16:21:51;;;;;;;9.53;5.17;;;;;;;8.74;100.00;99634.13;12204430;19;20018;-76
2022/12/20 16:25:52;;;;;;;10.18;5.25;;;;;;;8.73;100.00;99637.94;12202216;19;20006;-76
2022/12/20 16:29:54;;;;;;;12.43;5.47;;;;;;;8.79;100.00;99638.91;12218691;19;20011;-78
2022/12/20 16:33:57;;;;;;;10.65;6.25;;;;;;;8.84;100.00;99633.50;12190516;19;20019;-76
2022/12/20 16:37:59;;;;;;;10.68;6.25;;;;;;;8.86;100.00;99632.19;12179719;19;20010;-80
2022/12/20 16:42:01;;;;;;;12.97;7.03;;;;;;;8.90;100.00;99635.28;12195761;19;20027;-76
2022/12/20 16:46:03;;;;;;;11.32;7.28;;;;;;;8.93;100.00;99644.97;12201424;19;20023;-78
2022/12/20 16:50:06;;;;;;;12.80;6.93;;;;;;;8.92;100.00;99638.59;12180323;19;20098;-78
2022/12/20 16:54:18;;;;;;;10.68;6.38;;;;;;;8.95;100.00;99635.38;12197692;19;20496;-78
2022/12/20 16:58:21;;;;;;;18.45;7.55;;;;;;;8.95;100.00;99629.03;12176629;19;20034;-78
2022/12/20 17:02:43;;;;;;;9.93;6.53;;;;;;;8.94;100.00;99628.22;12244395;19;20017;-76
2022/12/20 17:06:45;;;;;;;10.05;7.20;;;;;;;8.90;100.00;99630.63;12245999;19;20054;-76
2022/12/20 17:10:47;;;;;;;13.03;7.33;;;;;;;8.80;100.00;99632.31;12219029;19;20014;-78
2022/12/20 17:14:49;;;;;;;15.70;9.18;;;;;;;8.69;100.00;99622.22;12206124;19;20634;-79
2022/12/20 17:18:52;;;;;;;15.52;8.05;;;;;;;8.63;100.00;99622.09;12200247;19;20014;-80
2022/12/20 17:22:55;;;;;;;12.52;6.82;;;;;;;8.60;100.00;99636.31;12178936;19;20509;-81
2022/12/20 17:26:56;;;;;;;9.10;5.18;;;;;;;8.59;100.00;99626.38;12197110;19;20006;-80
2022/12/20 17:30:58;;;;;;;12.57;7.10;;;;;;;8.58;100.00;99610.16;12198248;19;20082;-80
2022/12/20 17:35:18;;;;;;;11.75;6.88;;;;;;;8.57;100.00;99617.56;12172511;19;20015;-80
2022/12/20 17:39:21;;;;;;;11.25;6.05;;;;;;;8.64;100.00;99601.78;12197220;19;20014;-78
2022/12/20 17:43:22;;;;;;;10.27;5.95;;;;;;;8.74;100.00;99609.38;12172684;19;20019;-80
2022/12/20 17:47:24;;;;;;;11.85;6.07;;;;;;;8.83;100.00;99587.84;12203679;19;20030;-81
2022/12/20 17:51:28;;;;;;;10.10;5.68;;;;;;;8.90;100.00;99592.16;12208094;19;20023;-79
2022/12/20 17:55:31;;;;;;;8.45;5.32;;;;;;;9.04;100.00;99586.34;12168933;19;20472;-80
2022/12/20 17:59:32;;;;;;;11.33;6.00;;;;;;;9.16;100.00;99591.81;12197174;19;20025;-78
2022/12/20 18:03:34;;;;;;;11.02;6.43;;;;;;;9.25;100.00;99588.44;12195395;19;20263;-76
2022/12/20 18:07:55;;;;;;;13.88;6.13;;;;;;;9.29;100.00;99594.25;12176757;19;20035;-78
2022/12/20 18:11:57;;;;;;;12.80;7.25;;;;;;;9.36;100.00;99592.19;12203170;19;20420;-76
2022/12/20 18:16:03;;;;;;;12.27;7.35;;;;;;;9.43;99.83;99594.78;12208753;19;20018;-79
2022/12/20 18:20:06;;;;;;;11.05;6.63;;;;;;;9.46;99.65;99594.28;12176936;19;20372;-80
2022/12/20 18:24:11;;;;;;;12.13;7.15;;;;;;;9.50;99.39;99592.72;12198884;19;20011;-78
2022/12/20 18:28:13;;;;;;;13.93;7.22;;;;;;;9.49;99.17;99597.38;12202918;19;20121;-80
2022/12/20 18:32:15;;;;;;;17.27;7.72;;;;;;;9.47;99.37;99591.28;12185623;19;20009;-80
2022/12/20 18:36:19;;;;;;;14.43;7.18;;;;;;;9.43;99.81;99586.53;12200694;19;20006;-82
2022/12/20 18:40:22;;;;;;;12.93;8.10;;;;;;;9.36;100.00;99582.00;12179179;19;20571;-78
2022/12/20 18:44:27;;;;;;;13.60;7.50;;;;;;;9.27;100.00;99582.66;12204130;19;20070;-79
2022/12/20 18:48:28;;;;;;;12.85;7.40;;;;;;;9.18;100.00;99587.72;12205769;19;20019;-81
2022/12/20 18:52:30;;;;;;;13.27;7.38;;;;;;;9.11;100.00;99585.13;12178535;19;20002;-80